アスタナ国際空港の過去48時間の天気

アスタナ国際空港 (Astana)

現在時刻: 9/23 04:19 +05 (9/22 23:19 UTC) 以下の時間は現地時間です。

過去48時間のMETAR気象情報
時間 風向 風速(m/s) 視程 気温(℃) 湿度(%) 気圧(hPa) 天気現象
23 04:00 西 2 4500m 1 75 1020 もや
23 03:30 西 3 6000m 1 75 1020
23 03:00 西 3 9000m 1 75 1020
23 02:30 西南西 3 4500m 0 80 1020 もや
23 02:15 西南西 3 5000m 1 75 1020 もや
23 02:00 西南西 3 3000m 1 75 1020 もや
23 01:46 西 3 5000m 1 75 1020 もや
23 01:30 西 2 6000m 1 75 1020
23 01:00 西 2 6000m 2 69 1020
23 00:30 西 2 6000m 3 65 1020
23 00:00 西 3 6000m 4 60 1020
22 23:30 西南西 4 8000m 4 60 1020
22 23:00 西南西 5 5000m 4 60 1020
22 22:30 西南西 4 5000m 5 61 1020
22 22:00 西南西 4 3300m 5 56 1020
22 21:54 西南西 4 5000m 5 61 1020
22 21:30 西南西 4 6000m 6 57 1020
22 21:00 西南西 4 5000m 7 53 1020
22 20:30 西南西 3 5000m 5 61 1020
22 20:22 西南西 3 5000m 5 61 1020
22 20:00 西南西 3 10km以上 6 57 1020
22 19:30 西南西 3 10km以上 7 53 1020
22 19:00 南西 2 10km以上 7 49 1020
22 18:30 西 2 10km以上 9 46 1020
22 18:00 西 2 10km以上 9 46 1020
22 17:30 西北西 3 10km以上 10 40 1020
22 17:00 北北西 3 10km以上 10 40 1020
22 16:30 北西 4 10km以上 10 40 1020
22 16:00 西 4 10km以上 11 37 1020
22 15:30 西 4 10km以上 11 40 1020
22 15:00 北北西 3 10km以上 10 43 1021
22 14:30 西北西 4 10km以上 10 40 1021
22 14:00 北西 4 10km以上 10 40 1021
22 13:30 北北西 4 10km以上 10 43 1021
22 13:00 北北西 5 10km以上 9 46 1021
22 12:30 北西 4 10km以上 9 46 1021
22 12:00 西 3 10km以上 8 46 1022
22 11:30 西北西 3 10km以上 9 46 1022
22 11:00 北西 3 10km以上 8 49 1022
22 10:30 4 10km以上 7 53 1022
22 10:00 4 10km以上 7 53 1022
22 09:30 北北西 3 10km以上 7 57 1023
22 09:00 不定 1 10km以上 6 61 1022
22 08:30 不定 1 6000m 5 75 1022
22 08:00 不定 1 10km以上 3 81 1022
22 07:30 静穏 0 9000m 2 81 1022
22 07:00 西南西 1 5000m -2 93 1022 もや
22 06:30 不定 1 4500m -2 93 1022 散在した霧
22 06:17 不定 1 3000m -2 93 1022 散在した霧
22 06:07 西北西 2 5000m -2 93 1022 もや
22 05:30 西 2 9000m -1 93 1022
22 05:00 西南西 2 8000m -2 93 1022
22 04:30 西南西 3 6000m -1 93 1022
22 04:00 西南西 2 5000m -1 93 1022 もや
22 03:30 西南西 2 3800m -1 86 1022 もや
22 03:00 西 2 6000m -1 93 1022
22 02:30 西 3 5000m -1 86 1022 もや
22 02:00 西 3 4100m -1 93 1022 もや
22 01:42 西 3 3000m -1 93 1022 もや
22 01:30 西 3 5000m -1 86 1022 もや
22 01:00 西 3 5000m 0 86 1022 もや
22 00:30 不定 1 5000m -1 93 1022 もや
22 00:14 不定 1 5000m -1 86 1023 もや
22 00:00 西 2 7000m -1 86 1023
21 23:30 西 3 10km以上 2 81 1023
21 23:00 西 2 10km以上 3 75 1023
21 22:30 北西 2 10km以上 3 75 1023
21 22:00 西北西 3 10km以上 4 65 1023
21 21:30 西北西 2 10km以上 4 70 1023
21 21:00 西北西 2 10km以上 4 75 1023
21 20:30 西 2 10km以上 5 70 1023
21 20:00 西 3 10km以上 6 65 1023
21 19:30 西 2 10km以上 5 65 1023
21 19:00 不定 1 10km以上 6 65 1023
21 18:30 北北東 2 10km以上 7 61 1023
21 18:00 2 10km以上 7 61 1023
21 17:30 2 10km以上 8 57 1023
21 17:00 4 10km以上 8 57 1023
21 16:30 3 10km以上 8 61 1023
21 16:00 3 10km以上 9 53 1023
21 15:30 北北東 5 10km以上 8 61 1023
21 15:00 北北西 3 10km以上 8 61 1023
21 14:30 北西 4 10km以上 8 57 1023
21 14:00 北北西 4 10km以上 9 57 1023
21 13:30 5 10km以上 8 61 1023
21 13:00 3 10km以上 8 57 1023
21 12:30 北北西 3 10km以上 7 61 1023
21 12:00 3 10km以上 7 61 1023
21 11:30 北西 3 10km以上 7 61 1023
21 11:00 北北西 3 10km以上 7 66 1023
21 10:30 西北西 3 10km以上 6 65 1023
21 10:00 北西 3 10km以上 6 65 1023
21 09:30 3 10km以上 6 65 1023
21 09:00 不定 1 10km以上 6 70 1023
21 08:30 不定 1 10km以上 4 75 1023
21 08:00 不定 1 10km以上 2 81 1023
21 07:30 西北西 1 10km以上 0 86 1022
21 07:00 西北西 2 10km以上 -1 86 1022
21 06:30 西北西 3 10km以上 -1 86 1022
21 06:00 西 2 10km以上 -1 86 1022
21 05:30 西 3 10km以上 -1 86 1022
21 05:00 西北西 3 10km以上 -1 86 1022
21 04:30 西北西 3 10km以上 0 80 1021
UACC 222300Z 28002MPS 4500 BR NSC 01/M03 Q1020 R22/0///70 TEMPO 2000 BR RMK QFE734/0978
UACC 222230Z 27003MPS 6000 NSC 01/M03 Q1020 R22/0///70 TEMPO 2000 BR RMK QFE734/0978
UACC 222200Z 26003MPS 9000 NSC 01/M03 Q1020 R22/0///70 TEMPO 2000 BR RMK QFE733/0978
UACC 222130Z 24003MPS 4500 BR NSC 00/M03 Q1020 R22/0///70 TEMPO 2000 FU RMK QFE733/0978
UACC 222115Z 25003MPS 5000 BR NSC 01/M03 Q1020 R22/0///70 TEMPO 2000 FU RMK QFE733/0978
UACC 222100Z 25003MPS 3000 BR NSC 01/M03 Q1020 R22/0///70 TEMPO 2000 FU RMK QFE733/0978
UACC 222046Z 26003MPS 220V280 5000 BR NSC 01/M03 Q1020 R22/0///70 TEMPO 2000 FU RMK QFE733/0978
UACC 222030Z 28002MPS 6000 NSC 01/M03 Q1020 R22/0///70 TEMPO 2000 FU RMK QFE733/0978
UACC 222000Z 27002MPS 6000 NSC 02/M03 Q1020 R22/0///70 TEMPO 2000 FU RMK QFE733/0978
UACC 221930Z 27002MPS 6000 NSC 03/M03 Q1020 R22/0///70 TEMPO 2000 FU RMK QFE733/0978
UACC 221900Z 26003MPS 6000 NSC 04/M03 Q1020 R22/0///70 TEMPO 2000 FU RMK QFE733/0978
UACC 221830Z 25004MPS 8000 NSC 04/M03 Q1020 R22/0///70 TEMPO 2000 FU RMK QFE734/0978
UACC 221800Z 25005MPS 5000 FU NSC 04/M03 Q1020 R22/0///70 TEMPO 2000 FU RMK QFE734/0978
UACC 221730Z 25004MPS 5000 FU NSC 05/M02 Q1020 R22/0///70 TEMPO 2000 FU RMK QFE734/0978
UACC 221700Z 24004MPS 3300 FU NSC 05/M03 Q1020 R22/0///70 NOSIG RMK QFE734/0979
UACC 221654Z 25004MPS 5000 FU NSC 05/M02 Q1020 R22/0///70 NOSIG RMK QFE734/0978
UACC 221630Z 25004MPS 6000 NSC 06/M02 Q1020 R22/0///70 NOSIG RMK QFE734/0978
UACC 221600Z 25004MPS 5000 FU NSC 07/M02 Q1020 R22/0///70 NOSIG RMK QFE734/0979
UACC 221530Z 25003MPS 5000 FU NSC 05/M02 Q1020 R22/0///70 NOSIG RMK QFE734/0979
UACC 221522Z 25003MPS 5000 FU NSC 05/M02 Q1020 R22/0///70 NOSIG RMK QFE734/0979
UACC 221500Z 25003MPS CAVOK 06/M02 Q1020 R22/0///70 NOSIG RMK QFE734/0979
UACC 221430Z 25003MPS CAVOK 07/M02 Q1020 R22/0///70 NOSIG RMK QFE734/0979
UACC 221400Z 23002MPS CAVOK 07/M03 Q1020 R22/0///70 NOSIG RMK QFE734/0978
UACC 221330Z 26002MPS CAVOK 09/M02 Q1020 R22/0///70 NOSIG RMK QFE734/0978
UACC 221300Z 28002MPS 250V310 CAVOK 09/M02 Q1020 R22/0///70 NOSIG RMK QFE734/0978
UACC 221230Z 30003MPS 270V330 CAVOK 10/M03 Q1020 R22/0///70 NOSIG RMK QFE734/0978
UACC 221200Z 33003MPS 270V350 CAVOK 10/M03 Q1020 R22/0///70 NOSIG RMK QFE734/0979
UACC 221130Z 31004MPS 9999 FEW046 10/M03 Q1020 R22/0///70 NOSIG RMK QFE734/0979
UACC 221100Z 28004MPS 250V310 9999 FEW046 11/M03 Q1020 R22/0///70 NOSIG RMK QFE734/0979
UACC 221030Z 27004MPS 230V310 9999 FEW046 11/M02 Q1020 R22/0///70 NOSIG RMK QFE734/0979
UACC 221000Z 34003MPS 300V010 9999 SCT043 10/M02 Q1021 R22/0///70 NOSIG RMK QFE734/0979
UACC 220930Z 29004MPS 250V340 9999 SCT043 10/M03 Q1021 R22/0///70 NOSIG RMK QFE734/0979
UACC 220900Z 32004MPS 300V010 9999 SCT036 10/M03 Q1021 R22/0///70 NOSIG RMK QFE734/0979
UACC 220830Z 34004MPS 290V020 9999 SCT036 10/M02 Q1021 R22/0///70 NOSIG RMK QFE734/0979
UACC 220800Z 34005MPS 9999 BKN036 09/M02 Q1021 R22/0///70 NOSIG RMK QFE734/0979
UACC 220730Z 31004MPS 260V360 9999 SCT033 09/M02 Q1021 R22/0///70 NOSIG RMK QFE734/0979
UACC 220700Z 28003MPS 200V340 9999 SCT033 08/M03 Q1022 R22/0///70 NOSIG RMK QFE735/0980
UACC 220630Z 30003MPS 240V010 9999 SCT033 09/M02 Q1022 R22/0///70 NOSIG RMK QFE735/0980
UACC 220600Z 31003MPS 250V020 9999 SCT033 08/M02 Q1022 R04/0///70 NOSIG RMK QFE735/0980
UACC 220530Z 36004MPS 290V050 9999 SCT030 07/M02 Q1022 R04/0///70 NOSIG RMK QFE735/0980
UACC 220500Z 35004MPS 300V040 9999 SCT023 07/M02 Q1022 R04/0///70 NOSIG RMK QFE735/0980
UACC 220430Z 33003MPS 300V030 9999 SCT023 07/M01 Q1023 R04/0///70 NOSIG RMK QFE735/0980
UACC 220400Z VRB01MPS 9999 FEW020 06/M01 Q1022 R22/0///70 NOSIG RMK QFE735/0981
UACC 220330Z VRB01MPS 6000 FEW020 05/01 Q1022 R22/0///70 NOSIG RMK QFE735/0981
UACC 220300Z VRB01MPS 9999 FEW020 03/M00 Q1022 R22/0///70 TEMPO 2000 BR SCT007 RMK QFE735/0980
UACC 220230Z 00000MPS 9000 FEW020 02/M01 Q1022 R22/0///70 TEMPO 2000 BR SCT007 RMK QFE735/0980
UACC 220200Z 24001MPS 5000 BR FEW020 M02/M03 Q1022 R22/0///70 TEMPO 0200 FZFG VV002 RMK QFE735/0980
UACC 220130Z VRB01MPS 4500 BCFG NSC M02/M03 Q1022 R22/0///70 TEMPO 0200 FZFG VV002 RMK QFE735/0980
UACC 220117Z VRB01MPS 3000 BCFG NSC M02/M03 Q1022 R22/0///70 TEMPO 0500 FZFG VV002 RMK QFE735/0980
UACC 220107Z 30002MPS 5000 BR FEW010 M02/M03 Q1022 R22/0///70 TEMPO 3000 BR SCT005 RMK QFE735/0980
UACC 220030Z 27002MPS 240V310 9000 NSC M01/M02 Q1022 R22/0///70 TEMPO 3000 BR SCT005 RMK QFE735/0980
UACC 220000Z 24002MPS 8000 NSC M02/M03 Q1022 R22/0///70 TEMPO 3000 BR SCT005 RMK QFE735/0980
UACC 212330Z 24003MPS 6000 NSC M01/M02 Q1022 R04/0///70 TEMPO 3000 BR SCT005 RMK QFE735/0980
UACC 212300Z 25002MPS 5000 BR NSC M01/M02 Q1022 R04/0///70 TEMPO 3000 BR SCT005 RMK QFE735/0980
UACC 212230Z 25002MPS 3800 BR NSC M01/M03 Q1022 R04/0///70 TEMPO 3000 BR SCT005 RMK QFE735/0980
UACC 212200Z 27002MPS 6000 NSC M01/M02 Q1022 R04/0///70 TEMPO 3000 BR SCT005 RMK QFE735/0980
UACC 212130Z 27003MPS 5000 BR NSC M01/M03 Q1022 R04/0///70 TEMPO 3000 BR SCT005 RMK QFE735/0980
UACC 212100Z 28003MPS 4100 BR NSC M01/M02 Q1022 R04/0///70 TEMPO 3000 BR SCT005 RMK QFE735/0980
UACC 212042Z 28003MPS 3000 BR NSC M01/M02 Q1022 R04/0///70 TEMPO 3000 BR SCT005 RMK QFE735/0980
UACC 212030Z 28003MPS 5000 BR NSC M01/M03 Q1022 R04/0///70 TEMPO 3000 BR SCT005 RMK QFE735/0980
UACC 212000Z 28003MPS 5000 BR NSC 00/M02 Q1022 R04/0///70 TEMPO 3000 BR SCT005 RMK QFE735/0980
UACC 211930Z VRB01MPS 5000 BR NSC M01/M02 Q1022 R04/0///70 TEMPO 3000 BR SCT005 RMK QFE735/0980
UACC 211914Z VRB01MPS 5000 BR NSC M01/M03 Q1023 R04/0///70 TEMPO 3000 BR SCT005 RMK QFE735/0980
UACC 211900Z 28002MPS 7000 NSC M01/M03 Q1023 R04/0///70 NOSIG RMK QFE735/0981
UACC 211830Z 28003MPS CAVOK 02/M01 Q1023 R04/0///70 NOSIG RMK QFE735/0981
UACC 211800Z 28002MPS CAVOK 03/M01 Q1023 R04/0///70 NOSIG RMK QFE735/0981
UACC 211730Z 31002MPS CAVOK 03/M01 Q1023 R04/0///70 NOSIG RMK QFE735/0981
UACC 211700Z 30003MPS 9999 FEW046 04/M02 Q1023 R04/0///70 NOSIG RMK QFE735/0981
UACC 211630Z 30002MPS 9999 SCT043 04/M01 Q1023 R04/0///70 NOSIG RMK QFE735/0981
UACC 211600Z 29002MPS 9999 SCT042 04/M00 Q1023 R04/0///70 NOSIG RMK QFE736/0981
UACC 211530Z 28002MPS 9999 BKN040 05/00 Q1023 R04/0///70 NOSIG RMK QFE736/0981
UACC 211500Z 26003MPS 9999 BKN043 06/00 Q1023 R04/0///70 NOSIG RMK QFE736/0981
UACC 211430Z 26002MPS 9999 SCT046 05/M01 Q1023 R04/0///70 NOSIG RMK QFE736/0981
UACC 211400Z VRB01MPS CAVOK 06/00 Q1023 R04/0///70 NOSIG RMK QFE736/0981
UACC 211330Z 02002MPS CAVOK 07/00 Q1023 R04/0///70 NOSIG RMK QFE735/0981
UACC 211300Z 01002MPS 9999 SCT043 07/00 Q1023 R04/0///70 NOSIG RMK QFE735/0981
UACC 211230Z 35002MPS 300V010 9999 SCT040 08/00 Q1023 R04/0///70 NOSIG RMK QFE736/0981
UACC 211200Z 36004MPS 320V020 9999 SCT040 08/00 Q1023 R04/0///70 NOSIG RMK QFE736/0981
UACC 211130Z 35003MPS 9999 FEW036CB 08/01 Q1023 R04/0///70 NOSIG RMK QFE736/0981
UACC 211100Z 01003MPS 9999 FEW036CB 09/M00 Q1023 R04/0///70 NOSIG RMK QFE736/0981
UACC 211030Z 02005MPS 350V050 9999 FEW031CB 08/01 Q1023 R04/0///70 NOSIG RMK QFE736/0981
UACC 211000Z 34003MPS 290V020 9999 FEW031CB 08/01 Q1023 R04/0///70 NOSIG RMK QFE735/0981
UACC 210930Z 31004MPS 260V360 9999 FEW031CB 08/00 Q1023 R04/0///70 NOSIG RMK QFE735/0981
UACC 210900Z 33004MPS 290V360 9999 FEW031CB 09/01 Q1023 R04/0///70 NOSIG RMK QFE735/0981
UACC 210830Z 35005MPS 320V020 9999 SCT031CB BKN046 08/01 Q1023 R04/0///70 NOSIG RMK QFE735/0981
UACC 210800Z 35003MPS 290V020 9999 SCT031CB BKN046 08/M00 Q1023 R04/0///70 NOSIG RMK QFE735/0981
UACC 210730Z 34003MPS 310V030 9999 SCT026CB BKN043 07/M00 Q1023 R22/0///70 NOSIG RMK QFE736/0981
UACC 210700Z 35003MPS 310V030 9999 SCT025CB BKN036 07/M00 Q1023 R22/0///70 NOSIG RMK QFE736/0981
UACC 210630Z 32003MPS 280V360 9999 SCT025CB BKN036 07/M00 Q1023 R22/0///70 NOSIG RMK QFE736/0981
UACC 210600Z 33003MPS 290V010 9999 SCT023CB BKN036 07/01 Q1023 R22/0///70 NOSIG RMK QFE736/0981
UACC 210530Z 29003MPS 240V340 9999 SCT023CB BKN036 06/00 Q1023 R22/0///70 NOSIG RMK QFE736/0981
UACC 210500Z 32003MPS 290V020 9999 SCT025CB BKN043 06/00 Q1023 R22/0///70 NOSIG RMK QFE736/0981
UACC 210430Z 35003MPS 280V030 9999 FEW030CB 06/00 Q1023 R22/0///70 NOSIG RMK QFE736/0981
UACC 210400Z VRB01MPS 9999 SCT032 06/01 Q1023 R22/0///70 NOSIG RMK QFE736/0981
UACC 210330Z VRB01MPS 9999 SCT030 04/M00 Q1023 R22/0///70 NOSIG RMK QFE735/0981
UACC 210300Z VRB01MPS 9999 SCT025 02/M01 Q1023 R22/0///70 NOSIG RMK QFE736/0981
UACC 210230Z 30001MPS 9999 SCT025 00/M02 Q1022 R22/0///70 NOSIG RMK QFE735/0981
UACC 210200Z 29002MPS 270V330 CAVOK M01/M03 Q1022 R22/0///70 NOSIG RMK QFE735/0980
UACC 210130Z 29003MPS 270V350 CAVOK M01/M03 Q1022 R22/0///70 NOSIG RMK QFE735/0980
UACC 210100Z 27002MPS 230V330 CAVOK M01/M03 Q1022 R22/0///70 NOSIG RMK QFE735/0980
UACC 210030Z 28003MPS CAVOK M01/M03 Q1022 R22/0///70 NOSIG RMK QFE735/0980
UACC 210000Z 29003MPS 280V360 CAVOK M01/M03 Q1022 R22/0///70 NOSIG RMK QFE735/0980
UACC 202330Z 29003MPS CAVOK M00/M03 Q1021 R22/0///70 NOSIG RMK QFE734/0979